sensor_id;sensor_type;location;lat;lon;timestamp;pressure;altitude;pressure_sealevel;temperature;humidity
44441;BME280;30146;52.268;20.944;2023-07-24T00:00:36;99471.80;;;21.28;50.45
44441;BME280;30146;52.268;20.944;2023-07-24T00:03:09;99470.24;;;21.26;50.58
44441;BME280;30146;52.268;20.944;2023-07-24T00:05:40;99463.86;;;21.22;50.66
44441;BME280;30146;52.268;20.944;2023-07-24T00:08:11;99461.88;;;21.21;50.66
44441;BME280;30146;52.268;20.944;2023-07-24T00:10:42;99463.23;;;21.19;50.89
44441;BME280;30146;52.268;20.944;2023-07-24T00:13:13;99468.17;;;21.18;51.06
44441;BME280;30146;52.268;20.944;2023-07-24T00:15:44;99469.15;;;21.16;50.91
44441;BME280;30146;52.268;20.944;2023-07-24T00:18:15;99476.95;;;21.13;51.11
44441;BME280;30146;52.268;20.944;2023-07-24T00:20:49;99478.08;;;21.12;51.21
44441;BME280;30146;52.268;20.944;2023-07-24T00:23:20;99484.23;;;21.11;51.18
44441;BME280;30146;52.268;20.944;2023-07-24T00:25:51;99480.80;;;21.11;51.33
44441;BME280;30146;52.268;20.944;2023-07-24T00:28:22;99486.08;;;21.10;50.94
44441;BME280;30146;52.268;20.944;2023-07-24T00:30:55;99488.23;;;21.08;50.86
44441;BME280;30146;52.268;20.944;2023-07-24T00:33:27;99484.66;;;21.07;50.94
44441;BME280;30146;52.268;20.944;2023-07-24T00:35:58;99483.95;;;21.08;51.03
44441;BME280;30146;52.268;20.944;2023-07-24T00:38:29;99485.29;;;21.08;51.12
44441;BME280;30146;52.268;20.944;2023-07-24T00:41:00;99483.80;;;21.10;50.95
44441;BME280;30146;52.268;20.944;2023-07-24T00:43:31;99483.55;;;21.11;50.95
44441;BME280;30146;52.268;20.944;2023-07-24T00:46:04;99483.84;;;21.12;50.95
44441;BME280;30146;52.268;20.944;2023-07-24T00:48:36;99485.80;;;21.13;50.98
44441;BME280;30146;52.268;20.944;2023-07-24T00:51:09;99486.93;;;21.15;50.87
44441;BME280;30146;52.268;20.944;2023-07-24T00:53:41;99486.10;;;21.17;50.87
44441;BME280;30146;52.268;20.944;2023-07-24T00:56:12;99489.09;;;21.19;50.92
44441;BME280;30146;52.268;20.944;2023-07-24T00:58:44;99483.44;;;21.20;50.98
44441;BME280;30146;52.268;20.944;2023-07-24T01:01:17;99482.98;;;21.22;51.04
44441;BME280;30146;52.268;20.944;2023-07-24T01:03:49;99484.11;;;21.24;50.95
44441;BME280;30146;52.268;20.944;2023-07-24T01:06:20;99484.72;;;21.25;50.74
44441;BME280;30146;52.268;20.944;2023-07-24T01:08:51;99486.55;;;21.26;50.73
44441;BME280;30146;52.268;20.944;2023-07-24T01:11:26;99490.85;;;21.27;50.72
44441;BME280;30146;52.268;20.944;2023-07-24T01:14:02;99490.84;;;21.27;50.69
44441;BME280;30146;52.268;20.944;2023-07-24T01:16:38;99494.11;;;21.27;50.68
44441;BME280;30146;52.268;20.944;2023-07-24T01:19:20;99495.30;;;21.28;50.57
44441;BME280;30146;52.268;20.944;2023-07-24T01:22:18;99494.98;;;21.27;50.33
44441;BME280;30146;52.268;20.944;2023-07-24T01:25:04;99490.97;;;21.27;50.43
44441;BME280;30146;52.268;20.944;2023-07-24T01:27:37;99493.26;;;21.27;50.21
44441;BME280;30146;52.268;20.944;2023-07-24T01:30:12;99493.20;;;21.28;50.27
44441;BME280;30146;52.268;20.944;2023-07-24T01:32:43;99494.90;;;21.28;50.18
44441;BME280;30146;52.268;20.944;2023-07-24T01:35:14;99499.38;;;21.29;50.09
44441;BME280;30146;52.268;20.944;2023-07-24T01:40:47;99495.58;;;21.29;49.84
44441;BME280;30146;52.268;20.944;2023-07-24T01:43:18;99495.67;;;21.29;49.87
44441;BME280;30146;52.268;20.944;2023-07-24T01:45:49;99491.14;;;21.30;49.80
44441;BME280;30146;52.268;20.944;2023-07-24T01:48:20;99489.64;;;21.32;49.78
44441;BME280;30146;52.268;20.944;2023-07-24T01:50:51;99487.66;;;21.32;49.71
44441;BME280;30146;52.268;20.944;2023-07-24T01:53:21;99488.41;;;21.34;49.51
44441;BME280;30146;52.268;20.944;2023-07-24T01:55:52;99486.49;;;21.34;49.37
44441;BME280;30146;52.268;20.944;2023-07-24T01:58:23;99483.29;;;21.35;49.47
44441;BME280;30146;52.268;20.944;2023-07-24T02:00:56;99479.23;;;21.36;49.11
44441;BME280;30146;52.268;20.944;2023-07-24T02:03:26;99477.36;;;21.36;49.17
44441;BME280;30146;52.268;20.944;2023-07-24T02:05:58;99476.73;;;21.38;48.94
44441;BME280;30146;52.268;20.944;2023-07-24T02:08:29;99470.27;;;21.38;48.59
44441;BME280;30146;52.268;20.944;2023-07-24T02:11:00;99472.30;;;21.39;48.54
44441;BME280;30146;52.268;20.944;2023-07-24T02:13:31;99471.21;;;21.40;48.49
44441;BME280;30146;52.268;20.944;2023-07-24T02:16:02;99466.53;;;21.39;48.39
44441;BME280;30146;52.268;20.944;2023-07-24T02:18:33;99468.09;;;21.39;48.14
44441;BME280;30146;52.268;20.944;2023-07-24T02:21:04;99459.55;;;21.40;48.06
44441;BME280;30146;52.268;20.944;2023-07-24T02:23:34;99461.14;;;21.39;47.96
44441;BME280;30146;52.268;20.944;2023-07-24T02:26:06;99462.52;;;21.39;48.05
44441;BME280;30146;52.268;20.944;2023-07-24T02:28:37;99461.62;;;21.40;48.17
44441;BME280;30146;52.268;20.944;2023-07-24T02:31:08;99463.51;;;21.40;48.07
44441;BME280;30146;52.268;20.944;2023-07-24T02:33:39;99463.23;;;21.39;47.77
44441;BME280;30146;52.268;20.944;2023-07-24T02:36:09;99466.70;;;21.39;47.83
44441;BME280;30146;52.268;20.944;2023-07-24T02:38:42;99463.09;;;21.39;47.65
44441;BME280;30146;52.268;20.944;2023-07-24T02:41:13;99460.50;;;21.38;47.57
44441;BME280;30146;52.268;20.944;2023-07-24T02:43:44;99477.88;;;21.39;47.36
44441;BME280;30146;52.268;20.944;2023-07-24T02:46:14;99479.81;;;21.38;47.72
44441;BME280;30146;52.268;20.944;2023-07-24T02:48:45;99484.21;;;21.38;47.50
44441;BME280;30146;52.268;20.944;2023-07-24T02:51:16;99486.83;;;21.38;47.51
44441;BME280;30146;52.268;20.944;2023-07-24T02:53:47;99480.79;;;21.37;47.60
44441;BME280;30146;52.268;20.944;2023-07-24T02:56:21;99480.47;;;21.36;47.40
44441;BME280;30146;52.268;20.944;2023-07-24T02:58:52;99479.98;;;21.35;47.53
44441;BME280;30146;52.268;20.944;2023-07-24T03:01:23;99483.86;;;21.35;47.54
44441;BME280;30146;52.268;20.944;2023-07-24T03:03:54;99486.69;;;21.34;47.56
44441;BME280;30146;52.268;20.944;2023-07-24T03:06:25;99490.40;;;21.33;47.70
44441;BME280;30146;52.268;20.944;2023-07-24T03:08:56;99488.19;;;21.32;47.62
44441;BME280;30146;52.268;20.944;2023-07-24T03:11:27;99491.38;;;21.31;47.46
44441;BME280;30146;52.268;20.944;2023-07-24T03:13:58;99489.36;;;21.30;47.75
44441;BME280;30146;52.268;20.944;2023-07-24T03:16:29;99490.64;;;21.29;47.69
44441;BME280;30146;52.268;20.944;2023-07-24T03:19:00;99494.48;;;21.29;47.86
44441;BME280;30146;52.268;20.944;2023-07-24T03:21:31;99495.92;;;21.29;47.97
44441;BME280;30146;52.268;20.944;2023-07-24T03:24:03;99494.92;;;21.28;48.28
44441;BME280;30146;52.268;20.944;2023-07-24T03:26:34;99494.97;;;21.27;48.00
44441;BME280;30146;52.268;20.944;2023-07-24T03:29:07;99498.89;;;21.26;48.08
44441;BME280;30146;52.268;20.944;2023-07-24T03:31:38;99500.22;;;21.24;47.97
44441;BME280;30146;52.268;20.944;2023-07-24T03:34:11;99500.85;;;21.23;48.04
44441;BME280;30146;52.268;20.944;2023-07-24T03:36:42;99502.55;;;21.21;48.01
44441;BME280;30146;52.268;20.944;2023-07-24T03:39:13;99501.66;;;21.21;48.15
44441;BME280;30146;52.268;20.944;2023-07-24T03:41:44;99501.48;;;21.21;47.98
44441;BME280;30146;52.268;20.944;2023-07-24T03:44:15;99503.48;;;21.22;48.01
44441;BME280;30146;52.268;20.944;2023-07-24T03:46:45;99506.26;;;21.25;48.21
44441;BME280;30146;52.268;20.944;2023-07-24T03:49:16;99506.09;;;21.27;48.05
44441;BME280;30146;52.268;20.944;2023-07-24T03:51:47;99507.46;;;21.30;48.29
44441;BME280;30146;52.268;20.944;2023-07-24T03:54:18;99506.32;;;21.34;48.17
44441;BME280;30146;52.268;20.944;2023-07-24T03:56:49;99502.84;;;21.37;48.15
44441;BME280;30146;52.268;20.944;2023-07-24T03:59:20;99504.30;;;21.41;48.34
44441;BME280;30146;52.268;20.944;2023-07-24T04:01:51;99508.34;;;21.46;48.35
44441;BME280;30146;52.268;20.944;2023-07-24T04:04:23;99512.46;;;21.52;48.22
44441;BME280;30146;52.268;20.944;2023-07-24T04:06:58;99515.38;;;21.55;48.26
44441;BME280;30146;52.268;20.944;2023-07-24T04:09:29;99515.09;;;21.57;48.17
44441;BME280;30146;52.268;20.944;2023-07-24T04:12:04;99514.46;;;21.59;48.19
44441;BME280;30146;52.268;20.944;2023-07-24T04:14:35;99511.46;;;21.59;48.16
44441;BME280;30146;52.268;20.944;2023-07-24T04:17:07;99506.16;;;21.60;47.98
44441;BME280;30146;52.268;20.944;2023-07-24T04:19:38;99506.51;;;21.60;48.23
44441;BME280;30146;52.268;20.944;2023-07-24T04:22:09;99505.14;;;21.62;48.12
44441;BME280;30146;52.268;20.944;2023-07-24T04:24:44;99509.70;;;21.67;48.22
44441;BME280;30146;52.268;20.944;2023-07-24T04:27:15;99511.04;;;21.73;48.41
44441;BME280;30146;52.268;20.944;2023-07-24T04:29:46;99516.20;;;21.78;48.46
44441;BME280;30146;52.268;20.944;2023-07-24T04:32:18;99518.13;;;21.83;48.22
44441;BME280;30146;52.268;20.944;2023-07-24T04:35:05;99515.98;;;21.97;48.21
44441;BME280;30146;52.268;20.944;2023-07-24T04:37:36;99516.80;;;22.20;48.43
44441;BME280;30146;52.268;20.944;2023-07-24T04:40:11;99515.65;;;22.39;48.16
44441;BME280;30146;52.268;20.944;2023-07-24T04:42:43;99511.98;;;22.46;48.00
44441;BME280;30146;52.268;20.944;2023-07-24T04:45:14;99511.36;;;22.50;47.67
44441;BME280;30146;52.268;20.944;2023-07-24T04:47:45;99510.02;;;22.54;47.43
44441;BME280;30146;52.268;20.944;2023-07-24T04:50:16;99508.75;;;22.55;47.53
44441;BME280;30146;52.268;20.944;2023-07-24T04:52:50;99508.19;;;22.56;47.42
44441;BME280;30146;52.268;20.944;2023-07-24T04:55:22;99509.88;;;22.61;47.69
44441;BME280;30146;52.268;20.944;2023-07-24T04:57:55;99508.47;;;22.76;47.74
44441;BME280;30146;52.268;20.944;2023-07-24T05:00:28;99510.89;;;22.95;47.75
44441;BME280;30146;52.268;20.944;2023-07-24T05:02:59;99517.24;;;23.20;47.90
44441;BME280;30146;52.268;20.944;2023-07-24T05:05:30;99519.16;;;23.54;48.03
44441;BME280;30146;52.268;20.944;2023-07-24T05:08:01;99515.27;;;23.94;47.65
44441;BME280;30146;52.268;20.944;2023-07-24T05:10:37;99515.36;;;24.39;47.54
44441;BME280;30146;52.268;20.944;2023-07-24T05:13:10;99517.89;;;24.60;46.58
44441;BME280;30146;52.268;20.944;2023-07-24T05:15:42;99514.62;;;24.64;45.79
44441;BME280;30146;52.268;20.944;2023-07-24T05:18:13;99512.40;;;24.59;45.41
44441;BME280;30146;52.268;20.944;2023-07-24T05:20:46;99510.62;;;24.51;45.04
44441;BME280;30146;52.268;20.944;2023-07-24T05:23:20;99509.52;;;24.40;45.18
44441;BME280;30146;52.268;20.944;2023-07-24T05:25:57;99512.36;;;24.26;44.89
44441;BME280;30146;52.268;20.944;2023-07-24T05:28:30;99513.67;;;24.12;44.66
44441;BME280;30146;52.268;20.944;2023-07-24T05:31:03;99514.10;;;23.98;44.74
44441;BME280;30146;52.268;20.944;2023-07-24T05:33:37;99515.20;;;23.86;44.95
44441;BME280;30146;52.268;20.944;2023-07-24T05:36:08;99517.86;;;23.76;45.20
44441;BME280;30146;52.268;20.944;2023-07-24T05:38:40;99515.91;;;23.67;45.47
44441;BME280;30146;52.268;20.944;2023-07-24T05:41:11;99521.75;;;23.59;45.27
44441;BME280;30146;52.268;20.944;2023-07-24T05:43:42;99525.30;;;23.52;45.22
44441;BME280;30146;52.268;20.944;2023-07-24T05:46:12;99525.30;;;23.42;45.23
44441;BME280;30146;52.268;20.944;2023-07-24T05:48:44;99530.95;;;23.32;45.49
44441;BME280;30146;52.268;20.944;2023-07-24T05:51:15;99529.05;;;23.25;45.66
44441;BME280;30146;52.268;20.944;2023-07-24T05:53:49;99534.80;;;23.18;45.57
44441;BME280;30146;52.268;20.944;2023-07-24T05:56:20;99532.31;;;23.12;45.77
44441;BME280;30146;52.268;20.944;2023-07-24T05:58:50;99542.77;;;23.07;45.60
44441;BME280;30146;52.268;20.944;2023-07-24T06:01:21;99539.60;;;23.02;45.76
44441;BME280;30146;52.268;20.944;2023-07-24T06:03:52;99538.28;;;22.99;45.73
44441;BME280;30146;52.268;20.944;2023-07-24T06:06:23;99540.19;;;22.97;45.78
44441;BME280;30146;52.268;20.944;2023-07-24T06:08:57;99541.41;;;22.97;46.05
44441;BME280;30146;52.268;20.944;2023-07-24T06:11:28;99547.27;;;22.98;46.13
44441;BME280;30146;52.268;20.944;2023-07-24T06:13:59;99539.90;;;22.96;46.01
44441;BME280;30146;52.268;20.944;2023-07-24T06:16:30;99540.36;;;22.92;45.92
44441;BME280;30146;52.268;20.944;2023-07-24T06:19:01;99540.30;;;22.88;46.07
44441;BME280;30146;52.268;20.944;2023-07-24T06:21:32;99540.20;;;22.85;46.29
44441;BME280;30146;52.268;20.944;2023-07-24T06:24:06;99538.11;;;22.82;46.18
44441;BME280;30146;52.268;20.944;2023-07-24T06:26:41;99535.46;;;22.80;46.31
44441;BME280;30146;52.268;20.944;2023-07-24T06:29:12;99533.45;;;22.79;46.30
44441;BME280;30146;52.268;20.944;2023-07-24T06:31:44;99535.29;;;22.80;46.37
44441;BME280;30146;52.268;20.944;2023-07-24T06:34:17;99529.27;;;22.84;46.70
44441;BME280;30146;52.268;20.944;2023-07-24T06:36:48;99530.27;;;22.90;46.86
44441;BME280;30146;52.268;20.944;2023-07-24T06:39:19;99530.59;;;22.95;46.84
44441;BME280;30146;52.268;20.944;2023-07-24T06:41:52;99536.86;;;22.99;47.06
44441;BME280;30146;52.268;20.944;2023-07-24T06:44:23;99532.64;;;23.02;46.81
44441;BME280;30146;52.268;20.944;2023-07-24T06:46:54;99533.60;;;23.04;46.44
44441;BME280;30146;52.268;20.944;2023-07-24T06:49:26;99535.34;;;23.04;46.46
44441;BME280;30146;52.268;20.944;2023-07-24T06:51:57;99535.42;;;23.05;46.76
44441;BME280;30146;52.268;20.944;2023-07-24T06:54:28;99543.13;;;23.04;46.87
44441;BME280;30146;52.268;20.944;2023-07-24T06:56:59;99543.39;;;23.06;46.73
44441;BME280;30146;52.268;20.944;2023-07-24T06:59:30;99539.38;;;23.06;46.89
44441;BME280;30146;52.268;20.944;2023-07-24T07:02:07;99536.85;;;23.07;46.71
44441;BME280;30146;52.268;20.944;2023-07-24T07:04:38;99536.14;;;23.10;46.96
44441;BME280;30146;52.268;20.944;2023-07-24T07:07:11;99531.67;;;23.16;47.10
44441;BME280;30146;52.268;20.944;2023-07-24T07:09:42;99527.16;;;23.27;47.03
44441;BME280;30146;52.268;20.944;2023-07-24T07:12:13;99531.27;;;23.44;46.91
44441;BME280;30146;52.268;20.944;2023-07-24T07:14:46;99530.19;;;23.63;46.98
44441;BME280;30146;52.268;20.944;2023-07-24T07:20:53;99519.09;;;24.23;46.86
44441;BME280;30146;52.268;20.944;2023-07-24T07:23:24;99514.59;;;24.45;47.11
44441;BME280;30146;52.268;20.944;2023-07-24T07:25:55;99517.64;;;24.68;46.46
44441;BME280;30146;52.268;20.944;2023-07-24T07:28:26;99520.36;;;24.88;46.54
44441;BME280;30146;52.268;20.944;2023-07-24T07:30:57;99522.98;;;25.00;45.84
44441;BME280;30146;52.268;20.944;2023-07-24T07:33:28;99529.84;;;25.10;45.52
44441;BME280;30146;52.268;20.944;2023-07-24T07:35:59;99528.81;;;25.23;45.02
44441;BME280;30146;52.268;20.944;2023-07-24T07:38:32;99527.42;;;25.36;44.69
44441;BME280;30146;52.268;20.944;2023-07-24T07:41:06;99521.55;;;25.45;44.63
44441;BME280;30146;52.268;20.944;2023-07-24T07:43:38;99520.54;;;25.51;44.53
44441;BME280;30146;52.268;20.944;2023-07-24T07:46:09;99520.21;;;25.55;44.65
44441;BME280;30146;52.268;20.944;2023-07-24T07:48:40;99516.56;;;25.54;44.46
44441;BME280;30146;52.268;20.944;2023-07-24T07:52:50;99516.98;;;25.54;44.32
44441;BME280;30146;52.268;20.944;2023-07-24T07:55:23;99522.20;;;25.52;44.53
44441;BME280;30146;52.268;20.944;2023-07-24T07:57:55;99518.70;;;25.54;44.26
44441;BME280;30146;52.268;20.944;2023-07-24T08:00:26;99524.41;;;25.59;43.84
44441;BME280;30146;52.268;20.944;2023-07-24T08:02:57;99523.85;;;25.62;43.95
44441;BME280;30146;52.268;20.944;2023-07-24T08:05:29;99522.84;;;25.65;43.58
44441;BME280;30146;52.268;20.944;2023-07-24T08:08:01;99520.15;;;25.64;43.18
44441;BME280;30146;52.268;20.944;2023-07-24T08:10:36;99520.48;;;25.60;43.12
44441;BME280;30146;52.268;20.944;2023-07-24T08:13:07;99520.98;;;25.54;43.10
44441;BME280;30146;52.268;20.944;2023-07-24T08:15:39;99522.65;;;25.49;43.16
44441;BME280;30146;52.268;20.944;2023-07-24T08:18:10;99520.84;;;25.45;43.47
44441;BME280;30146;52.268;20.944;2023-07-24T08:20:41;99520.02;;;25.43;43.57
44441;BME280;30146;52.268;20.944;2023-07-24T08:23:13;99522.77;;;25.41;43.66
44441;BME280;30146;52.268;20.944;2023-07-24T08:25:53;99522.20;;;25.40;43.76
44441;BME280;30146;52.268;20.944;2023-07-24T08:28:24;99523.36;;;25.41;43.54
44441;BME280;30146;52.268;20.944;2023-07-24T08:31:00;99519.71;;;25.42;43.68
44441;BME280;30146;52.268;20.944;2023-07-24T08:33:36;99517.95;;;25.44;43.47
44441;BME280;30146;52.268;20.944;2023-07-24T08:36:08;99513.88;;;25.47;43.58
44441;BME280;30146;52.268;20.944;2023-07-24T08:38:41;99514.04;;;25.55;43.83
44441;BME280;30146;52.268;20.944;2023-07-24T08:41:14;99510.94;;;25.69;44.44
44441;BME280;30146;52.268;20.944;2023-07-24T08:43:45;99508.77;;;25.86;44.35
44441;BME280;30146;52.268;20.944;2023-07-24T08:46:17;99507.83;;;26.04;44.18
44441;BME280;30146;52.268;20.944;2023-07-24T08:48:48;99510.06;;;26.22;44.24
44441;BME280;30146;52.268;20.944;2023-07-24T08:51:19;99504.35;;;26.39;44.07
44441;BME280;30146;52.268;20.944;2023-07-24T08:53:51;99506.71;;;26.52;43.26
44441;BME280;30146;52.268;20.944;2023-07-24T08:56:23;99508.44;;;26.58;42.76
44441;BME280;30146;52.268;20.944;2023-07-24T08:58:54;99505.64;;;26.60;42.54
44441;BME280;30146;52.268;20.944;2023-07-24T09:01:26;99504.64;;;26.59;42.19
44441;BME280;30146;52.268;20.944;2023-07-24T09:03:57;99504.23;;;26.60;43.08
44441;BME280;30146;52.268;20.944;2023-07-24T09:06:28;99501.48;;;26.64;42.72
44441;BME280;30146;52.268;20.944;2023-07-24T09:09:00;99498.03;;;26.71;42.60
44441;BME280;30146;52.268;20.944;2023-07-24T09:11:32;99497.30;;;26.83;42.45
44441;BME280;30146;52.268;20.944;2023-07-24T09:14:05;99491.48;;;26.97;42.11
44441;BME280;30146;52.268;20.944;2023-07-24T09:16:48;99486.02;;;27.14;42.50
44441;BME280;30146;52.268;20.944;2023-07-24T09:19:25;99478.30;;;27.32;42.33
44441;BME280;30146;52.268;20.944;2023-07-24T09:21:56;99482.36;;;27.48;42.01
44441;BME280;30146;52.268;20.944;2023-07-24T09:24:27;99481.78;;;27.56;41.39
44441;BME280;30146;52.268;20.944;2023-07-24T09:26:58;99481.51;;;27.63;41.32
44441;BME280;30146;52.268;20.944;2023-07-24T09:29:33;99477.96;;;27.72;41.29
44441;BME280;30146;52.268;20.944;2023-07-24T09:32:07;99477.29;;;27.80;40.82
44441;BME280;30146;52.268;20.944;2023-07-24T09:34:43;99474.90;;;27.84;40.77
44441;BME280;30146;52.268;20.944;2023-07-24T09:37:24;99474.09;;;27.83;40.82
44441;BME280;30146;52.268;20.944;2023-07-24T09:39:55;99476.30;;;27.80;40.35
44441;BME280;30146;52.268;20.944;2023-07-24T09:42:34;99472.33;;;27.74;40.14
44441;BME280;30146;52.268;20.944;2023-07-24T09:45:26;99470.63;;;27.70;40.39
44441;BME280;30146;52.268;20.944;2023-07-24T09:47:58;99464.73;;;27.68;40.55
44441;BME280;30146;52.268;20.944;2023-07-24T09:50:36;99460.60;;;27.67;40.56
44441;BME280;30146;52.268;20.944;2023-07-24T09:53:14;99449.16;;;27.65;40.41
44441;BME280;30146;52.268;20.944;2023-07-24T09:55:49;99445.48;;;27.65;40.08
44441;BME280;30146;52.268;20.944;2023-07-24T09:58:22;99440.48;;;27.66;40.16
44441;BME280;30146;52.268;20.944;2023-07-24T10:00:54;99442.05;;;27.68;40.26
44441;BME280;30146;52.268;20.944;2023-07-24T10:03:26;99433.39;;;27.72;40.33
44441;BME280;30146;52.268;20.944;2023-07-24T10:05:57;99425.88;;;27.79;40.61
44441;BME280;30146;52.268;20.944;2023-07-24T10:08:30;99422.08;;;27.86;40.45
44441;BME280;30146;52.268;20.944;2023-07-24T10:11:02;99422.38;;;27.90;40.65
44441;BME280;30146;52.268;20.944;2023-07-24T10:13:33;99416.11;;;27.95;40.47
44441;BME280;30146;52.268;20.944;2023-07-24T10:16:06;99409.44;;;27.97;40.84
44441;BME280;30146;52.268;20.944;2023-07-24T10:18:43;99409.19;;;27.98;40.33
44441;BME280;30146;52.268;20.944;2023-07-24T10:21:15;99415.09;;;27.93;39.72
44441;BME280;30146;52.268;20.944;2023-07-24T10:23:47;99410.46;;;27.86;39.55
44441;BME280;30146;52.268;20.944;2023-07-24T10:26:26;99405.64;;;27.76;39.30
44441;BME280;30146;52.268;20.944;2023-07-24T10:28:58;99402.43;;;27.60;39.17
44441;BME280;30146;52.268;20.944;2023-07-24T10:31:29;99404.85;;;27.53;39.67
44441;BME280;30146;52.268;20.944;2023-07-24T10:34:07;99409.77;;;27.50;39.46
44441;BME280;30146;52.268;20.944;2023-07-24T10:36:42;99406.37;;;27.44;39.52
44441;BME280;30146;52.268;20.944;2023-07-24T10:39:16;99401.79;;;27.39;39.42
44441;BME280;30146;52.268;20.944;2023-07-24T10:41:48;99390.05;;;27.30;39.60
44441;BME280;30146;52.268;20.944;2023-07-24T10:44:19;99389.04;;;27.27;39.56
44441;BME280;30146;52.268;20.944;2023-07-24T10:47:00;99381.23;;;27.26;39.77
44441;BME280;30146;52.268;20.944;2023-07-24T10:49:32;99381.90;;;27.27;39.83
44441;BME280;30146;52.268;20.944;2023-07-24T10:52:03;99380.60;;;27.25;39.74
44441;BME280;30146;52.268;20.944;2023-07-24T10:54:35;99375.02;;;27.23;39.76
44441;BME280;30146;52.268;20.944;2023-07-24T10:57:08;99366.71;;;27.20;39.82
44441;BME280;30146;52.268;20.944;2023-07-24T10:59:40;99358.45;;;27.17;39.84
44441;BME280;30146;52.268;20.944;2023-07-24T11:02:11;99357.39;;;27.15;39.83
44441;BME280;30146;52.268;20.944;2023-07-24T11:04:42;99355.21;;;27.15;39.87
44441;BME280;30146;52.268;20.944;2023-07-24T11:07:17;99359.43;;;27.19;40.19
44441;BME280;30146;52.268;20.944;2023-07-24T11:10:19;99354.36;;;27.30;40.37
44441;BME280;30146;52.268;20.944;2023-07-24T11:12:51;99352.67;;;27.46;39.97
44441;BME280;30146;52.268;20.944;2023-07-24T11:15:34;99339.30;;;27.63;39.69
44441;BME280;30146;52.268;20.944;2023-07-24T11:18:05;99334.29;;;27.82;40.09
44441;BME280;30146;52.268;20.944;2023-07-24T11:20:44;99333.97;;;27.98;39.44
44441;BME280;30146;52.268;20.944;2023-07-24T11:23:16;99331.38;;;28.12;39.14
44441;BME280;30146;52.268;20.944;2023-07-24T11:25:49;99329.88;;;28.23;38.95
44441;BME280;30146;52.268;20.944;2023-07-24T11:28:21;99324.73;;;28.35;39.21
44441;BME280;30146;52.268;20.944;2023-07-24T11:30:55;99331.42;;;28.47;38.77
44441;BME280;30146;52.268;20.944;2023-07-24T11:33:33;99324.63;;;28.57;38.19
44441;BME280;30146;52.268;20.944;2023-07-24T11:36:04;99321.90;;;28.67;38.15
44441;BME280;30146;52.268;20.944;2023-07-24T11:38:35;99322.23;;;28.72;37.67
44441;BME280;30146;52.268;20.944;2023-07-24T11:41:09;99320.25;;;28.76;37.36
44441;BME280;30146;52.268;20.944;2023-07-24T11:43:47;99319.77;;;28.80;37.44
44441;BME280;30146;52.268;20.944;2023-07-24T11:46:26;99319.14;;;28.85;37.36
44441;BME280;30146;52.268;20.944;2023-07-24T11:48:57;99312.50;;;28.92;37.12
44441;BME280;30146;52.268;20.944;2023-07-24T11:51:29;99304.27;;;28.94;36.93
44441;BME280;30146;52.268;20.944;2023-07-24T11:54:07;99297.77;;;29.00;37.12
44441;BME280;30146;52.268;20.944;2023-07-24T11:56:41;99300.71;;;29.05;37.09
44441;BME280;30146;52.268;20.944;2023-07-24T11:59:13;99292.27;;;29.07;36.60
44441;BME280;30146;52.268;20.944;2023-07-24T12:01:48;99292.38;;;29.01;36.36
44441;BME280;30146;52.268;20.944;2023-07-24T12:04:19;99295.04;;;28.94;36.49
44441;BME280;30146;52.268;20.944;2023-07-24T12:06:51;99294.24;;;28.86;36.46
44441;BME280;30146;52.268;20.944;2023-07-24T12:09:22;99297.01;;;28.78;36.37
44441;BME280;30146;52.268;20.944;2023-07-24T12:12:00;99297.30;;;28.66;36.23
44441;BME280;30146;52.268;20.944;2023-07-24T12:14:34;99289.48;;;28.57;36.47
44441;BME280;30146;52.268;20.944;2023-07-24T12:17:05;99282.00;;;28.51;36.51
44441;BME280;30146;52.268;20.944;2023-07-24T12:19:38;99271.48;;;28.45;36.41
44441;BME280;30146;52.268;20.944;2023-07-24T12:22:08;99271.27;;;28.42;36.61
44441;BME280;30146;52.268;20.944;2023-07-24T12:24:39;99268.27;;;28.42;36.89
44441;BME280;30146;52.268;20.944;2023-07-24T12:27:10;99263.86;;;28.42;36.80
44441;BME280;30146;52.268;20.944;2023-07-24T12:29:41;99265.33;;;28.41;36.94
44441;BME280;30146;52.268;20.944;2023-07-24T12:32:12;99265.29;;;28.40;36.81
44441;BME280;30146;52.268;20.944;2023-07-24T12:34:43;99261.92;;;28.39;36.62
44441;BME280;30146;52.268;20.944;2023-07-24T12:37:14;99255.90;;;28.36;36.41
44441;BME280;30146;52.268;20.944;2023-07-24T12:39:45;99250.11;;;28.32;36.52
44441;BME280;30146;52.268;20.944;2023-07-24T12:42:17;99244.12;;;28.32;36.59
44441;BME280;30146;52.268;20.944;2023-07-24T12:44:48;99232.20;;;28.35;36.69
44441;BME280;30146;52.268;20.944;2023-07-24T12:47:19;99229.47;;;28.40;36.61
44441;BME280;30146;52.268;20.944;2023-07-24T12:49:50;99224.69;;;28.46;36.80
44441;BME280;30146;52.268;20.944;2023-07-24T12:52:22;99228.45;;;28.52;36.68
44441;BME280;30146;52.268;20.944;2023-07-24T12:54:54;99227.66;;;28.60;36.78
44441;BME280;30146;52.268;20.944;2023-07-24T12:57:31;99226.97;;;28.68;36.26
44441;BME280;30146;52.268;20.944;2023-07-24T13:00:02;99220.35;;;28.73;36.32
44441;BME280;30146;52.268;20.944;2023-07-24T13:02:37;99213.59;;;28.78;36.24
44441;BME280;30146;52.268;20.944;2023-07-24T13:05:09;99213.77;;;28.85;36.19
44441;BME280;30146;52.268;20.944;2023-07-24T13:07:40;99206.16;;;28.89;35.98
44441;BME280;30146;52.268;20.944;2023-07-24T13:10:11;99201.45;;;28.90;35.87
44441;BME280;30146;52.268;20.944;2023-07-24T13:12:42;99193.66;;;28.91;35.73
44441;BME280;30146;52.268;20.944;2023-07-24T13:15:14;99190.14;;;28.91;35.74
44441;BME280;30146;52.268;20.944;2023-07-24T13:17:45;99186.38;;;28.90;35.73
44441;BME280;30146;52.268;20.944;2023-07-24T13:20:17;99177.52;;;28.87;35.46
44441;BME280;30146;52.268;20.944;2023-07-24T13:22:47;99174.92;;;28.87;35.71
44441;BME280;30146;52.268;20.944;2023-07-24T13:25:19;99174.73;;;28.87;36.06